createdAt,value
2018-02-08T00:02:11.973Z,-6.83
2018-02-08T00:04:39.815Z,-6.85
2018-02-08T00:07:07.600Z,-6.84
2018-02-08T00:09:35.425Z,-6.89
2018-02-08T00:12:03.210Z,-6.93
2018-02-08T00:14:30.998Z,-7.01
2018-02-08T00:16:58.808Z,-7.08
2018-02-08T00:19:26.546Z,-7.09
2018-02-08T00:21:54.363Z,-7.08
2018-02-08T00:24:22.151Z,-7.06
2018-02-08T00:26:49.997Z,-7.04
2018-02-08T00:29:17.804Z,-7.04
2018-02-08T00:31:45.610Z,-7.05
2018-02-08T00:34:13.494Z,-7.09
2018-02-08T00:36:41.388Z,-7.12
2018-02-08T00:39:09.114Z,-7.14
2018-02-08T00:41:36.902Z,-7.16
2018-02-08T00:44:04.655Z,-7.14
2018-02-08T00:46:32.498Z,-7.12
2018-02-08T00:49:00.251Z,-7.08
2018-02-08T00:51:28.045Z,-7.05
2018-02-08T00:53:55.778Z,-6.99
2018-02-08T00:56:23.570Z,-7.00
2018-02-08T00:58:51.320Z,-7.02
2018-02-08T01:01:19.134Z,-7.08
2018-02-08T01:03:46.880Z,-7.11
2018-02-08T01:06:14.704Z,-7.15
2018-02-08T01:08:42.458Z,-7.15
2018-02-08T01:11:10.239Z,-7.18
2018-02-08T01:13:38.032Z,-7.19
2018-02-08T01:16:05.814Z,-7.18
2018-02-08T01:18:33.559Z,-7.16
2018-02-08T01:21:01.370Z,-7.14
2018-02-08T01:23:29.166Z,-7.17
2018-02-08T01:25:56.952Z,-7.22
2018-02-08T01:28:24.763Z,-7.23
2018-02-08T01:30:52.659Z,-7.27
2018-02-08T01:33:20.410Z,-7.27
2018-02-08T01:35:48.201Z,-7.23
2018-02-08T01:38:15.952Z,-7.20
2018-02-08T01:40:43.762Z,-7.20
2018-02-08T01:43:11.475Z,-7.23
2018-02-08T01:45:39.276Z,-7.21
2018-02-08T01:48:07.074Z,-7.20
2018-02-08T01:50:34.859Z,-7.27
2018-02-08T01:53:02.655Z,-7.26
2018-02-08T01:55:30.450Z,-7.17
2018-02-08T01:57:58.197Z,-7.12
2018-02-08T02:00:25.939Z,-7.13
2018-02-08T02:02:53.748Z,-7.12
2018-02-08T02:05:21.588Z,-7.10
2018-02-08T02:07:49.379Z,-7.10
2018-02-08T02:10:17.174Z,-7.09
2018-02-08T02:12:44.945Z,-7.13
2018-02-08T02:15:12.707Z,-7.19
2018-02-08T02:17:40.486Z,-7.22
2018-02-08T02:20:08.396Z,-7.29
2018-02-08T02:22:36.178Z,-7.31
2018-02-08T02:25:03.937Z,-7.31
2018-02-08T02:27:31.732Z,-7.30
2018-02-08T02:29:59.480Z,-7.27
2018-02-08T02:32:27.262Z,-7.28
2018-02-08T02:34:55.052Z,-7.35
2018-02-08T02:37:22.894Z,-7.41
2018-02-08T02:39:50.622Z,-7.47
2018-02-08T02:42:18.545Z,-7.51
2018-02-08T02:44:46.349Z,-7.50
2018-02-08T02:47:14.106Z,-7.55
2018-02-08T02:49:41.846Z,-7.51
2018-02-08T02:52:09.639Z,-7.50
2018-02-08T02:54:37.507Z,-7.46
2018-02-08T02:57:05.284Z,-7.45
2018-02-08T02:59:33.023Z,-7.42
2018-02-08T03:02:00.825Z,-7.42
2018-02-08T03:04:28.579Z,-7.41
2018-02-08T03:06:56.407Z,-7.41
2018-02-08T03:09:24.278Z,-7.38
2018-02-08T03:11:52.043Z,-7.38
2018-02-08T03:14:19.806Z,-7.41
2018-02-08T03:16:47.586Z,-7.41
2018-02-08T03:19:15.396Z,-7.46
2018-02-08T03:21:43.192Z,-7.50
2018-02-08T03:24:10.941Z,-7.52
2018-02-08T03:26:38.856Z,-7.53
2018-02-08T03:29:06.637Z,-7.48
2018-02-08T03:31:34.488Z,-7.49
2018-02-08T03:34:02.295Z,-7.53
2018-02-08T03:36:30.107Z,-7.55
2018-02-08T03:38:57.966Z,-7.57
2018-02-08T03:41:25.748Z,-7.56
2018-02-08T03:43:53.535Z,-7.53
2018-02-08T03:46:21.280Z,-7.56
2018-02-08T03:48:49.119Z,-7.58
2018-02-08T03:51:16.926Z,-7.60
2018-02-08T03:53:44.718Z,-7.63
2018-02-08T03:56:12.463Z,-7.60
2018-02-08T03:58:40.295Z,-7.63
2018-02-08T04:01:08.054Z,-7.68
2018-02-08T04:03:35.832Z,-7.70
2018-02-08T04:06:03.560Z,-7.67
2018-02-08T04:08:31.411Z,-7.65
2018-02-08T04:10:59.187Z,-7.64
2018-02-08T04:13:26.988Z,-7.64
2018-02-08T04:15:54.785Z,-7.66
2018-02-08T04:18:22.586Z,-7.62
2018-02-08T04:20:50.349Z,-7.64
2018-02-08T04:23:18.176Z,-7.70
2018-02-08T04:25:45.901Z,-7.78
2018-02-08T04:28:13.733Z,-7.81
2018-02-08T04:30:41.533Z,-7.89
2018-02-08T04:33:09.330Z,-7.93
2018-02-08T04:35:37.164Z,-7.94
2018-02-08T04:38:04.968Z,-7.92
2018-02-08T04:40:44.388Z,-7.90
2018-02-08T04:43:24.141Z,-7.89
2018-02-08T04:46:03.825Z,-7.85
2018-02-08T04:48:31.628Z,-7.83
2018-02-08T04:50:59.377Z,-7.83
2018-02-08T04:53:27.178Z,-7.82
2018-02-08T04:55:54.955Z,-7.83
2018-02-08T04:58:22.736Z,-7.85
2018-02-08T05:00:50.550Z,-7.81
2018-02-08T05:03:18.333Z,-7.73
2018-02-08T05:05:46.090Z,-7.70
2018-02-08T05:08:13.967Z,-7.71
2018-02-08T05:10:41.715Z,-7.55
2018-02-08T05:13:09.547Z,-7.29
2018-02-08T05:15:37.281Z,-7.14
2018-02-08T05:18:05.135Z,-7.05
2018-02-08T05:20:32.926Z,-7.22
2018-02-08T05:23:00.690Z,-7.46
2018-02-08T05:25:28.530Z,-7.64
2018-02-08T05:27:56.404Z,-7.73
2018-02-08T05:30:24.187Z,-7.85
2018-02-08T05:32:52.015Z,-7.94
2018-02-08T05:35:19.746Z,-7.98
2018-02-08T05:37:47.524Z,-7.99
2018-02-08T05:40:15.325Z,-7.99
2018-02-08T05:42:43.109Z,-7.98
2018-02-08T05:45:10.901Z,-7.99
2018-02-08T05:47:38.727Z,-7.95
2018-02-08T05:50:06.550Z,-7.88
2018-02-08T05:52:34.268Z,-7.82
2018-02-08T05:55:02.100Z,-7.79
2018-02-08T05:57:29.870Z,-7.83
2018-02-08T05:59:57.719Z,-7.88
2018-02-08T06:02:25.554Z,-7.92
2018-02-08T06:04:53.347Z,-7.95
2018-02-08T06:07:21.146Z,-8.02
2018-02-08T06:09:48.999Z,-8.01
2018-02-08T06:12:16.799Z,-8.02
2018-02-08T06:14:44.615Z,-7.97
2018-02-08T06:17:12.395Z,-7.91
2018-02-08T06:19:40.226Z,-7.87
2018-02-08T06:22:08.016Z,-7.93
2018-02-08T06:24:35.875Z,-8.12
2018-02-08T06:27:03.667Z,-8.23
2018-02-08T06:29:31.436Z,-8.17
2018-02-08T06:31:59.231Z,-8.40
2018-02-08T06:34:27.056Z,-8.53
2018-02-08T06:36:54.899Z,-8.64
2018-02-08T06:39:22.740Z,-8.75
2018-02-08T06:41:50.539Z,-8.75
2018-02-08T06:44:18.396Z,-8.72
2018-02-08T06:46:46.257Z,-8.70
2018-02-08T06:49:14.103Z,-8.67
2018-02-08T06:51:41.901Z,-8.64
2018-02-08T06:54:09.726Z,-8.60
2018-02-08T06:56:37.537Z,-8.57
2018-02-08T06:59:05.345Z,-8.55
2018-02-08T07:01:33.140Z,-8.54
2018-02-08T07:04:00.955Z,-8.53
2018-02-08T07:06:28.761Z,-8.49
2018-02-08T07:08:56.556Z,-8.45
2018-02-08T07:11:24.300Z,-8.42
2018-02-08T07:13:52.294Z,-8.38
2018-02-08T07:16:20.132Z,-8.39
2018-02-08T07:18:47.952Z,-8.33
2018-02-08T07:21:15.752Z,-8.31
2018-02-08T07:23:43.613Z,-8.30
2018-02-08T07:26:11.575Z,-8.28
2018-02-08T07:28:39.576Z,-8.21
2018-02-08T07:31:07.439Z,-8.11
2018-02-08T07:33:35.335Z,-8.00
2018-02-08T07:36:03.230Z,-7.86
2018-02-08T07:38:31.019Z,-7.72
2018-02-08T07:40:58.913Z,-7.56
2018-02-08T07:43:26.663Z,-7.41
2018-02-08T07:45:54.571Z,-7.25
2018-02-08T07:48:22.457Z,-7.12
2018-02-08T07:50:50.387Z,-7.08
2018-02-08T07:53:18.361Z,-7.03
2018-02-08T07:55:46.257Z,-6.95
2018-02-08T07:58:14.178Z,-6.87
2018-02-08T08:00:42.134Z,-6.77
2018-02-08T08:03:10.070Z,-6.64
2018-02-08T08:05:38.121Z,-6.52
2018-02-08T08:08:06.080Z,-6.42
2018-02-08T08:10:34.137Z,-6.35
2018-02-08T08:13:02.044Z,-6.26
2018-02-08T08:15:29.876Z,-6.16
2018-02-08T08:17:57.775Z,-6.04
2018-02-08T08:20:25.735Z,-5.94
2018-02-08T08:22:53.707Z,-5.81
2018-02-08T08:25:21.606Z,-5.65
2018-02-08T08:27:49.576Z,-5.56
2018-02-08T08:30:17.472Z,-5.47
2018-02-08T08:32:45.324Z,-5.37
2018-02-08T08:35:13.379Z,-5.31
2018-02-08T08:37:41.224Z,-5.21
2018-02-08T08:40:09.167Z,-5.06
2018-02-08T08:42:37.156Z,-4.88
2018-02-08T08:45:05.112Z,-4.71
2018-02-08T08:47:32.964Z,-4.54
2018-02-08T08:50:00.925Z,-4.41
2018-02-08T08:52:28.816Z,-4.32
2018-02-08T08:54:56.763Z,-4.24
2018-02-08T08:57:24.714Z,-4.09
2018-02-08T08:59:52.668Z,-3.99
2018-02-08T09:02:20.621Z,-3.84
2018-02-08T09:04:48.648Z,-3.77
2018-02-08T09:07:16.582Z,-3.63
2018-02-08T09:09:44.425Z,-3.59
2018-02-08T09:12:12.223Z,-3.53
2018-02-08T09:14:40.175Z,-3.42
2018-02-08T09:17:08.111Z,-3.27
2018-02-08T09:19:36.022Z,-3.16
2018-02-08T09:22:04.044Z,-3.07
2018-02-08T09:24:31.838Z,-2.90
2018-02-08T09:26:59.699Z,-2.73
2018-02-08T09:29:27.663Z,-2.61
2018-02-08T09:31:55.603Z,-2.56
2018-02-08T09:34:23.539Z,-2.44
2018-02-08T09:36:51.544Z,-2.32
2018-02-08T09:39:19.419Z,-2.26
2018-02-08T09:41:47.438Z,-2.18
2018-02-08T09:44:15.294Z,-2.02
2018-02-08T09:46:43.247Z,-1.88
2018-02-08T09:49:11.182Z,-1.83
2018-02-08T09:51:39.094Z,-1.72
2018-02-08T09:54:07.068Z,-1.63
2018-02-08T09:56:34.985Z,-1.58
2018-02-08T09:59:02.918Z,-1.50
2018-02-08T10:01:30.837Z,-1.42
2018-02-08T10:03:58.698Z,-1.27
2018-02-08T10:06:26.616Z,-1.18
2018-02-08T10:08:54.583Z,-1.07
2018-02-08T10:11:22.524Z,-1.00
2018-02-08T10:13:50.459Z,-0.97
2018-02-08T10:16:18.388Z,-0.94
2018-02-08T10:18:46.315Z,-0.91
2018-02-08T10:21:14.249Z,-0.81
2018-02-08T10:23:42.180Z,-0.81
2018-02-08T10:26:10.174Z,-0.83
2018-02-08T10:28:37.980Z,-0.82
2018-02-08T10:31:05.920Z,-0.83
2018-02-08T10:33:33.840Z,-0.84
2018-02-08T10:36:01.825Z,-0.88
2018-02-08T10:38:29.613Z,-0.87
2018-02-08T10:40:57.554Z,-0.81
2018-02-08T10:43:25.344Z,-0.69
2018-02-08T10:45:53.173Z,-0.63
2018-02-08T10:48:20.916Z,-0.64
2018-02-08T10:50:48.718Z,-0.62
2018-02-08T10:53:16.451Z,-0.49
2018-02-08T10:55:44.309Z,-0.35
2018-02-08T10:58:12.113Z,-0.26
2018-02-08T11:00:39.945Z,-0.22
2018-02-08T11:03:07.705Z,-0.25
2018-02-08T11:05:35.493Z,-0.19
2018-02-08T11:08:03.379Z,-0.16
2018-02-08T11:10:31.141Z,-0.04
2018-02-08T11:12:58.924Z,0.06
2018-02-08T11:15:26.924Z,0.15
2018-02-08T11:17:54.733Z,0.18
2018-02-08T11:20:22.519Z,0.22
2018-02-08T11:22:50.348Z,0.25
2018-02-08T11:25:18.196Z,0.24
2018-02-08T11:27:46.118Z,0.28
2018-02-08T11:30:13.909Z,0.36
2018-02-08T11:32:41.754Z,0.45
2018-02-08T11:35:09.545Z,0.56
2018-02-08T11:37:37.434Z,0.57
2018-02-08T11:40:05.237Z,0.63
2018-02-08T11:42:33.077Z,0.54
2018-02-08T11:45:00.985Z,0.57
2018-02-08T11:47:28.810Z,0.57
2018-02-08T11:49:56.553Z,0.63
2018-02-08T11:52:24.557Z,0.70
2018-02-08T11:54:52.399Z,0.74
2018-02-08T11:57:20.251Z,0.64
2018-02-08T11:59:48.080Z,0.78
2018-02-08T12:02:15.914Z,0.85
2018-02-08T12:04:43.763Z,0.98
2018-02-08T12:07:11.603Z,0.91
2018-02-08T12:09:39.421Z,0.91
2018-02-08T12:12:07.267Z,0.90
2018-02-08T12:14:35.043Z,0.97
2018-02-08T12:17:02.836Z,0.93
2018-02-08T12:19:30.578Z,0.87
2018-02-08T12:21:58.447Z,0.92
2018-02-08T12:24:26.247Z,1.01
2018-02-08T12:26:54.110Z,1.11
2018-02-08T12:29:21.851Z,1.22
2018-02-08T12:31:49.639Z,1.29
2018-02-08T12:34:17.425Z,1.25
2018-02-08T12:36:45.231Z,1.17
2018-02-08T12:39:12.992Z,1.14
2018-02-08T12:41:40.760Z,1.09
2018-02-08T12:44:09.454Z,1.06
2018-02-08T12:46:37.367Z,0.91
2018-02-08T12:49:05.130Z,0.86
2018-02-08T12:51:32.879Z,0.92
2018-02-08T12:54:00.734Z,0.96
2018-02-08T12:56:28.466Z,1.02
2018-02-08T12:58:56.282Z,1.08
2018-02-08T13:01:24.042Z,1.09
2018-02-08T13:03:51.796Z,1.10
2018-02-08T13:06:19.531Z,1.14
2018-02-08T13:08:47.347Z,1.15
2018-02-08T13:11:15.203Z,1.22
2018-02-08T13:13:43.041Z,1.16
2018-02-08T13:16:11.268Z,1.12
2018-02-08T13:18:39.125Z,1.21
2018-02-08T13:21:07.080Z,1.19
2018-02-08T13:23:34.890Z,1.12
2018-02-08T13:26:02.719Z,1.19
2018-02-08T13:28:30.575Z,1.21
2018-02-08T13:30:58.415Z,1.24
2018-02-08T13:33:26.301Z,1.22
2018-02-08T13:35:54.126Z,1.21
2018-02-08T13:38:22.006Z,1.19
2018-02-08T13:40:49.851Z,1.20
2018-02-08T13:43:17.833Z,1.19
2018-02-08T13:45:45.732Z,1.21
2018-02-08T13:48:30.367Z,1.21
2018-02-08T13:51:03.829Z,1.24
2018-02-08T13:53:37.251Z,1.28
2018-02-08T13:59:32.001Z,1.29
2018-02-08T14:02:05.984Z,1.29
2018-02-08T14:04:33.916Z,1.26
2018-02-08T14:07:01.751Z,1.09
2018-02-08T14:09:29.663Z,1.07
2018-02-08T14:11:57.499Z,1.07
2018-02-08T14:14:25.419Z,1.07
2018-02-08T14:16:53.296Z,1.01
2018-02-08T14:19:21.187Z,0.97
2018-02-08T14:21:49.058Z,0.94
2018-02-08T14:24:17.073Z,0.90
2018-02-08T14:26:44.943Z,0.91
2018-02-08T14:29:12.884Z,0.86
2018-02-08T14:31:40.703Z,0.84
2018-02-08T14:34:08.613Z,0.84
2018-02-08T14:36:36.418Z,0.84
2018-02-08T14:39:04.392Z,0.84
2018-02-08T14:41:32.212Z,0.81
2018-02-08T14:44:00.041Z,0.79
2018-02-08T14:46:27.868Z,0.76
2018-02-08T14:48:55.758Z,0.71
2018-02-08T14:51:23.535Z,0.67
2018-02-08T14:53:51.419Z,0.61
2018-02-08T14:56:19.293Z,0.53
2018-02-08T14:58:47.158Z,0.47
2018-02-08T15:01:15.025Z,0.42
2018-02-08T15:03:42.925Z,0.35
2018-02-08T15:06:10.744Z,0.28
2018-02-08T15:08:38.611Z,0.17
2018-02-08T15:11:06.449Z,0.12
2018-02-08T15:13:34.423Z,0.07
2018-02-08T15:16:02.236Z,0.03
2018-02-08T15:18:30.079Z,-0.06
2018-02-08T15:20:57.976Z,-0.15
2018-02-08T15:23:26.024Z,-0.25
2018-02-08T15:25:53.951Z,-0.35
2018-02-08T15:28:21.801Z,-0.47
2018-02-08T15:30:49.685Z,-0.57
2018-02-08T15:33:17.528Z,-0.62
2018-02-08T15:35:45.520Z,-0.61
2018-02-08T15:38:14.508Z,-0.61
2018-02-08T15:40:42.416Z,-0.69
2018-02-08T15:43:10.339Z,-0.80
2018-02-08T15:45:38.271Z,-0.93
2018-02-08T15:48:06.139Z,-1.03
2018-02-08T15:50:34.051Z,-1.10
2018-02-08T15:53:01.879Z,-1.16
2018-02-08T15:55:29.775Z,-1.25
2018-02-08T15:57:57.672Z,-1.33
2018-02-08T16:00:25.570Z,-1.37
2018-02-08T16:02:53.411Z,-1.36
2018-02-08T16:05:21.268Z,-1.32
2018-02-08T16:07:49.123Z,-1.32
2018-02-08T16:10:17.022Z,-1.33
2018-02-08T16:12:44.863Z,-1.35
2018-02-08T16:15:12.712Z,-1.36
2018-02-08T16:17:40.511Z,-1.39
2018-02-08T16:20:08.373Z,-1.40
2018-02-08T16:22:36.276Z,-1.41
2018-02-08T16:25:04.111Z,-1.48
2018-02-08T16:27:32.012Z,-1.55
2018-02-08T16:29:59.832Z,-1.64
2018-02-08T16:32:27.696Z,-1.73
2018-02-08T16:34:55.463Z,-1.76
2018-02-08T16:37:23.327Z,-1.82
2018-02-08T16:39:51.122Z,-1.88
2018-02-08T16:42:19.105Z,-1.92
2018-02-08T16:44:47.099Z,-1.99
2018-02-08T16:47:14.995Z,-2.04
2018-02-08T16:49:42.783Z,-2.09
2018-02-08T16:52:10.659Z,-2.10
2018-02-08T16:54:38.496Z,-2.18
2018-02-08T16:57:06.359Z,-2.24
2018-02-08T16:59:34.194Z,-2.33
2018-02-08T17:02:01.976Z,-2.43
2018-02-08T17:04:29.867Z,-2.50
2018-02-08T17:06:57.700Z,-2.55
2018-02-08T17:09:25.595Z,-2.58
2018-02-08T17:11:53.375Z,-2.61
2018-02-08T17:14:21.203Z,-2.59
2018-02-08T17:16:49.002Z,-2.62
2018-02-08T17:19:16.840Z,-2.65
2018-02-08T17:21:44.685Z,-2.68
2018-02-08T17:24:12.564Z,-2.72
2018-02-08T17:26:40.449Z,-2.71
2018-02-08T17:29:08.289Z,-2.74
2018-02-08T17:31:36.161Z,-2.76
2018-02-08T17:34:04.055Z,-2.80
2018-02-08T17:36:31.897Z,-2.85
2018-02-08T17:38:59.736Z,-2.89
2018-02-08T17:41:27.619Z,-2.95
2018-02-08T17:43:55.460Z,-3.00
2018-02-08T17:46:23.393Z,-3.04
2018-02-08T17:48:51.225Z,-3.08
2018-02-08T17:51:19.197Z,-3.11
2018-02-08T17:53:47.102Z,-3.13
2018-02-08T17:56:14.996Z,-3.17
2018-02-08T17:58:42.915Z,-3.12
2018-02-08T18:01:10.873Z,-3.12
2018-02-08T18:03:38.737Z,-3.17
2018-02-08T18:06:06.657Z,-3.23
2018-02-08T18:08:34.516Z,-3.27
2018-02-08T18:11:02.423Z,-3.31
2018-02-08T18:13:30.277Z,-3.35
2018-02-08T18:15:58.169Z,-3.37
2018-02-08T18:18:25.965Z,-3.40
2018-02-08T18:20:53.881Z,-3.45
2018-02-08T18:23:21.759Z,-3.41
2018-02-08T18:25:49.622Z,-3.38
2018-02-08T18:28:17.559Z,-3.36
2018-02-08T18:30:45.440Z,-3.30
2018-02-08T18:33:13.318Z,-3.36
2018-02-08T18:35:41.202Z,-3.38
2018-02-08T18:38:09.117Z,-3.41
2018-02-08T18:40:37.015Z,-3.46
2018-02-08T18:43:04.978Z,-3.52
2018-02-08T18:45:32.810Z,-3.61
2018-02-08T18:48:00.715Z,-3.68
2018-02-08T18:50:28.576Z,-3.74
2018-02-08T18:52:56.455Z,-3.79
2018-02-08T18:55:24.326Z,-3.80
2018-02-08T18:57:52.236Z,-3.78
2018-02-08T19:00:20.049Z,-3.77
2018-02-08T19:02:47.939Z,-3.75
2018-02-08T19:05:15.864Z,-3.75
2018-02-08T19:07:43.720Z,-3.76
2018-02-08T19:10:11.639Z,-3.81
2018-02-08T19:12:39.517Z,-3.87
2018-02-08T19:15:07.417Z,-3.91
2018-02-08T19:17:35.251Z,-3.92
2018-02-08T19:20:03.187Z,-3.97
2018-02-08T19:22:31.049Z,-4.06
2018-02-08T19:24:58.939Z,-4.11
2018-02-08T19:27:26.775Z,-4.14
2018-02-08T19:29:54.654Z,-4.16
2018-02-08T19:32:22.469Z,-4.17
2018-02-08T19:34:50.335Z,-4.21
2018-02-08T19:37:18.329Z,-4.21
2018-02-08T19:39:46.211Z,-4.23
2018-02-08T19:42:14.120Z,-4.25
2018-02-08T19:44:41.988Z,-4.23
2018-02-08T19:47:09.919Z,-4.19
2018-02-08T19:49:37.797Z,-4.27
2018-02-08T19:52:05.707Z,-4.40
2018-02-08T19:54:33.562Z,-4.47
2018-02-08T19:57:01.492Z,-4.53
2018-02-08T19:59:29.362Z,-4.58
2018-02-08T20:01:57.231Z,-4.66
2018-02-08T20:04:25.034Z,-4.68
2018-02-08T20:06:53.003Z,-4.70
2018-02-08T20:09:20.908Z,7.48
2018-02-08T20:11:48.823Z,-144.12
2018-02-08T20:14:22.251Z,-144.12
2018-02-08T20:16:50.245Z,-144.12
2018-02-08T20:19:18.132Z,-144.12
2018-02-08T20:21:46.040Z,-144.12
2018-02-08T20:24:13.887Z,-144.12
2018-02-08T20:26:41.838Z,-144.12
2018-02-08T20:29:09.759Z,-144.12
2018-02-08T20:31:37.684Z,-144.12
2018-02-08T20:34:05.603Z,-144.12
2018-02-08T20:36:33.490Z,-144.12
2018-02-08T20:39:01.417Z,-144.12
2018-02-08T20:41:29.309Z,-144.12
2018-02-08T20:43:57.303Z,-144.12
2018-02-08T20:46:25.187Z,-144.12
2018-02-08T20:48:53.101Z,-144.12
2018-02-08T20:51:20.949Z,-144.12
2018-02-08T20:53:48.869Z,-144.12
2018-02-08T20:56:16.734Z,-144.12
2018-02-08T20:58:44.647Z,-144.12
2018-02-08T21:01:12.537Z,-144.12
2018-02-08T21:03:40.455Z,-144.12
2018-02-08T21:06:08.348Z,-144.12
2018-02-08T21:08:36.209Z,-144.12
2018-02-08T21:11:04.111Z,-144.12
2018-02-08T21:13:32.016Z,-144.12
2018-02-08T21:15:59.947Z,-144.12
2018-02-08T21:18:27.790Z,-144.12
2018-02-08T21:20:55.667Z,-144.12
2018-02-08T21:23:23.500Z,-144.12
2018-02-08T21:25:51.448Z,-144.12
2018-02-08T21:28:19.300Z,-144.12
2018-02-08T21:30:47.189Z,-144.12
2018-02-08T21:33:15.097Z,-144.12
2018-02-08T21:35:42.971Z,-144.12
2018-02-08T21:38:10.844Z,-144.12
2018-02-08T21:40:38.736Z,-144.12
2018-02-08T21:43:06.606Z,-144.12
2018-02-08T21:45:34.501Z,-144.12
2018-02-08T21:48:02.381Z,-144.12
2018-02-08T21:50:30.239Z,-144.12
2018-02-08T21:52:58.126Z,-144.12
2018-02-08T21:55:26.008Z,-144.12
2018-02-08T21:57:53.907Z,-144.12
2018-02-08T22:00:21.810Z,-144.12
2018-02-08T22:02:49.678Z,-144.12
2018-02-08T22:05:17.611Z,-144.12
2018-02-08T22:07:45.548Z,-144.12
2018-02-08T22:10:13.399Z,-144.12
2018-02-08T22:12:41.339Z,-144.12
2018-02-08T22:15:09.175Z,-144.12
2018-02-08T22:17:37.127Z,-144.12
2018-02-08T22:20:04.934Z,-144.12
2018-02-08T22:22:32.835Z,-144.12
2018-02-08T22:25:00.640Z,-144.12
2018-02-08T22:27:28.519Z,-144.12
2018-02-08T22:29:56.381Z,-144.12
2018-02-08T22:32:24.226Z,-144.12
2018-02-08T22:34:52.120Z,-144.12
2018-02-08T22:37:19.952Z,-144.12
2018-02-08T22:39:47.855Z,-144.12
2018-02-08T22:42:15.733Z,-144.12
2018-02-08T22:44:43.610Z,-144.12
2018-02-08T22:47:11.458Z,-144.12
2018-02-08T22:49:39.368Z,-144.12
2018-02-08T22:52:07.222Z,-144.12
2018-02-08T22:54:35.105Z,-144.12
2018-02-08T22:57:02.914Z,-144.12
2018-02-08T22:59:30.887Z,-144.12
2018-02-08T23:01:58.739Z,-144.12
2018-02-08T23:04:26.578Z,-144.12
2018-02-08T23:06:54.452Z,-144.12
2018-02-08T23:09:22.293Z,-144.12
2018-02-08T23:11:50.170Z,-144.12
2018-02-08T23:14:18.035Z,-144.12
2018-02-08T23:16:45.930Z,-144.12
2018-02-08T23:19:13.810Z,-144.12
2018-02-08T23:21:41.701Z,-144.12
2018-02-08T23:24:09.547Z,-144.12
2018-02-08T23:26:37.454Z,-144.12
2018-02-08T23:29:05.299Z,-144.12
2018-02-08T23:31:33.223Z,-144.12
2018-02-08T23:34:01.078Z,-144.12
2018-02-08T23:36:28.951Z,-144.12
2018-02-08T23:38:56.818Z,-144.12
2018-02-08T23:41:24.682Z,-144.12
2018-02-08T23:43:52.578Z,-144.12
2018-02-08T23:46:20.495Z,-144.12
2018-02-08T23:48:48.331Z,-144.12
2018-02-08T23:51:16.226Z,-144.12
2018-02-08T23:53:44.099Z,-144.12
2018-02-08T23:56:11.918Z,-144.12
2018-02-08T23:58:39.843Z,-144.12
